sensor_id;sensor_type;location;lat;lon;timestamp;P1;durP1;ratioP1;P2;durP2;ratioP2
35691;SDS011;26978;44.830;-0.674;2023-04-30T00:01:52;17.55;;;9.85;;
35691;SDS011;26978;44.830;-0.674;2023-04-30T00:04:17;21.92;;;10.60;;
35691;SDS011;26978;44.830;-0.674;2023-04-30T00:06:43;25.88;;;11.32;;
35691;SDS011;26978;44.830;-0.674;2023-04-30T00:09:08;19.00;;;10.75;;
35691;SDS011;26978;44.830;-0.674;2023-04-30T00:11:34;16.02;;;9.68;;
35691;SDS011;26978;44.830;-0.674;2023-04-30T00:14:00;21.48;;;11.05;;
35691;SDS011;26978;44.830;-0.674;2023-04-30T00:16:26;21.20;;;11.85;;
35691;SDS011;26978;44.830;-0.674;2023-04-30T00:18:51;26.80;;;11.65;;
35691;SDS011;26978;44.830;-0.674;2023-04-30T00:21:17;20.95;;;12.45;;
35691;SDS011;26978;44.830;-0.674;2023-04-30T00:23:43;22.23;;;11.77;;
35691;SDS011;26978;44.830;-0.674;2023-04-30T00:26:09;17.92;;;11.20;;
35691;SDS011;26978;44.830;-0.674;2023-04-30T00:28:34;25.65;;;12.02;;
35691;SDS011;26978;44.830;-0.674;2023-04-30T00:31:00;28.63;;;12.55;;
35691;SDS011;26978;44.830;-0.674;2023-04-30T00:33:26;26.83;;;11.63;;
35691;SDS011;26978;44.830;-0.674;2023-04-30T00:35:52;20.20;;;11.18;;
35691;SDS011;26978;44.830;-0.674;2023-04-30T00:38:17;19.83;;;11.93;;
35691;SDS011;26978;44.830;-0.674;2023-04-30T00:40:43;24.85;;;12.63;;
35691;SDS011;26978;44.830;-0.674;2023-04-30T00:43:09;21.48;;;11.48;;
35691;SDS011;26978;44.830;-0.674;2023-04-30T00:45:35;34.08;;;11.60;;
35691;SDS011;26978;44.830;-0.674;2023-04-30T00:48:01;24.15;;;12.38;;
35691;SDS011;26978;44.830;-0.674;2023-04-30T00:50:27;23.60;;;11.38;;
35691;SDS011;26978;44.830;-0.674;2023-04-30T00:52:53;27.95;;;11.88;;
35691;SDS011;26978;44.830;-0.674;2023-04-30T00:55:19;26.35;;;11.02;;
35691;SDS011;26978;44.830;-0.674;2023-04-30T00:57:45;26.50;;;12.32;;
35691;SDS011;26978;44.830;-0.674;2023-04-30T01:00:11;24.55;;;11.35;;
35691;SDS011;26978;44.830;-0.674;2023-04-30T01:02:37;16.38;;;10.45;;
35691;SDS011;26978;44.830;-0.674;2023-04-30T01:05:03;22.10;;;11.50;;
35691;SDS011;26978;44.830;-0.674;2023-04-30T01:07:30;20.50;;;10.73;;
35691;SDS011;26978;44.830;-0.674;2023-04-30T01:09:56;22.17;;;11.55;;
35691;SDS011;26978;44.830;-0.674;2023-04-30T01:12:28;29.20;;;12.38;;
35691;SDS011;26978;44.830;-0.674;2023-04-30T01:20:19;25.83;;;13.00;;
35691;SDS011;26978;44.830;-0.674;2023-04-30T01:28:49;25.52;;;13.60;;
35691;SDS011;26978;44.830;-0.674;2023-04-30T01:31:17;30.45;;;14.70;;
35691;SDS011;26978;44.830;-0.674;2023-04-30T01:33:43;23.60;;;13.70;;
35691;SDS011;26978;44.830;-0.674;2023-04-30T01:36:18;28.63;;;14.30;;
35691;SDS011;26978;44.830;-0.674;2023-04-30T01:41:44;30.90;;;16.15;;
35691;SDS011;26978;44.830;-0.674;2023-04-30T01:44:22;24.08;;;15.27;;
35691;SDS011;26978;44.830;-0.674;2023-04-30T01:46:57;25.00;;;15.60;;
35691;SDS011;26978;44.830;-0.674;2023-04-30T01:52:23;30.02;;;16.98;;
35691;SDS011;26978;44.830;-0.674;2023-04-30T01:54:59;30.85;;;16.50;;
35691;SDS011;26978;44.830;-0.674;2023-04-30T01:57:34;28.45;;;16.80;;
35691;SDS011;26978;44.830;-0.674;2023-04-30T02:00:04;32.45;;;16.00;;
35691;SDS011;26978;44.830;-0.674;2023-04-30T02:02:34;34.13;;;16.02;;
35691;SDS011;26978;44.830;-0.674;2023-04-30T02:05:00;29.30;;;15.95;;
35691;SDS011;26978;44.830;-0.674;2023-04-30T02:07:31;27.60;;;16.50;;
35691;SDS011;26978;44.830;-0.674;2023-04-30T02:10:06;31.13;;;17.08;;
35691;SDS011;26978;44.830;-0.674;2023-04-30T02:12:32;32.40;;;17.35;;
35691;SDS011;26978;44.830;-0.674;2023-04-30T02:14:58;31.55;;;17.35;;
35691;SDS011;26978;44.830;-0.674;2023-04-30T02:17:23;29.80;;;16.75;;
35691;SDS011;26978;44.830;-0.674;2023-04-30T02:19:49;32.35;;;17.15;;
35691;SDS011;26978;44.830;-0.674;2023-04-30T02:22:15;26.45;;;14.63;;
35691;SDS011;26978;44.830;-0.674;2023-04-30T02:24:40;27.42;;;16.58;;
35691;SDS011;26978;44.830;-0.674;2023-04-30T02:27:06;32.78;;;16.08;;
35691;SDS011;26978;44.830;-0.674;2023-04-30T02:29:32;28.17;;;16.27;;
35691;SDS011;26978;44.830;-0.674;2023-04-30T02:31:57;31.67;;;15.73;;
35691;SDS011;26978;44.830;-0.674;2023-04-30T02:34:23;26.15;;;15.35;;
35691;SDS011;26978;44.830;-0.674;2023-04-30T02:36:49;25.55;;;15.70;;
35691;SDS011;26978;44.830;-0.674;2023-04-30T02:39:15;24.38;;;15.98;;
35691;SDS011;26978;44.830;-0.674;2023-04-30T02:41:40;26.40;;;16.40;;
35691;SDS011;26978;44.830;-0.674;2023-04-30T02:44:06;27.05;;;16.58;;
35691;SDS011;26978;44.830;-0.674;2023-04-30T02:46:31;23.35;;;16.98;;
35691;SDS011;26978;44.830;-0.674;2023-04-30T02:48:57;31.63;;;18.05;;
35691;SDS011;26978;44.830;-0.674;2023-04-30T02:51:23;27.23;;;17.27;;
35691;SDS011;26978;44.830;-0.674;2023-04-30T02:53:48;28.60;;;17.83;;
35691;SDS011;26978;44.830;-0.674;2023-04-30T02:56:14;25.30;;;17.52;;
35691;SDS011;26978;44.830;-0.674;2023-04-30T02:58:40;27.85;;;18.00;;
35691;SDS011;26978;44.830;-0.674;2023-04-30T03:01:05;23.73;;;16.85;;
35691;SDS011;26978;44.830;-0.674;2023-04-30T03:03:31;25.10;;;16.85;;
35691;SDS011;26978;44.830;-0.674;2023-04-30T03:05:57;29.48;;;17.23;;
35691;SDS011;26978;44.830;-0.674;2023-04-30T03:08:23;34.30;;;19.00;;
35691;SDS011;26978;44.830;-0.674;2023-04-30T03:10:49;24.33;;;17.42;;
35691;SDS011;26978;44.830;-0.674;2023-04-30T03:13:16;28.75;;;18.65;;
35691;SDS011;26978;44.830;-0.674;2023-04-30T03:15:42;27.95;;;18.30;;
35691;SDS011;26978;44.830;-0.674;2023-04-30T03:18:08;26.63;;;18.05;;
35691;SDS011;26978;44.830;-0.674;2023-04-30T03:20:34;24.52;;;18.92;;
35691;SDS011;26978;44.830;-0.674;2023-04-30T03:23:00;25.70;;;18.20;;
35691;SDS011;26978;44.830;-0.674;2023-04-30T03:25:25;23.67;;;18.10;;
35691;SDS011;26978;44.830;-0.674;2023-04-30T03:27:51;29.33;;;19.75;;
35691;SDS011;26978;44.830;-0.674;2023-04-30T03:30:17;28.38;;;19.15;;
35691;SDS011;26978;44.830;-0.674;2023-04-30T03:32:42;25.92;;;19.35;;
35691;SDS011;26978;44.830;-0.674;2023-04-30T03:35:08;32.78;;;19.33;;
35691;SDS011;26978;44.830;-0.674;2023-04-30T03:37:34;26.42;;;19.27;;
35691;SDS011;26978;44.830;-0.674;2023-04-30T03:39:59;28.48;;;19.52;;
35691;SDS011;26978;44.830;-0.674;2023-04-30T03:42:25;26.02;;;18.65;;
35691;SDS011;26978;44.830;-0.674;2023-04-30T03:44:51;26.73;;;19.05;;
35691;SDS011;26978;44.830;-0.674;2023-04-30T03:47:16;30.52;;;19.65;;
35691;SDS011;26978;44.830;-0.674;2023-04-30T03:49:42;28.40;;;19.90;;
35691;SDS011;26978;44.830;-0.674;2023-04-30T03:52:07;30.23;;;19.40;;
35691;SDS011;26978;44.830;-0.674;2023-04-30T03:54:33;24.10;;;19.02;;
35691;SDS011;26978;44.830;-0.674;2023-04-30T03:56:59;28.67;;;19.98;;
35691;SDS011;26978;44.830;-0.674;2023-04-30T03:59:27;30.45;;;20.17;;
35691;SDS011;26978;44.830;-0.674;2023-04-30T04:01:53;37.00;;;21.08;;
35691;SDS011;26978;44.830;-0.674;2023-04-30T04:04:19;30.45;;;19.05;;
35691;SDS011;26978;44.830;-0.674;2023-04-30T04:06:45;27.55;;;19.73;;
35691;SDS011;26978;44.830;-0.674;2023-04-30T04:09:11;28.02;;;19.63;;
35691;SDS011;26978;44.830;-0.674;2023-04-30T04:11:36;31.70;;;18.58;;
35691;SDS011;26978;44.830;-0.674;2023-04-30T04:14:02;27.85;;;20.40;;
35691;SDS011;26978;44.830;-0.674;2023-04-30T04:16:27;32.58;;;19.58;;
35691;SDS011;26978;44.830;-0.674;2023-04-30T04:18:53;32.45;;;19.58;;
35691;SDS011;26978;44.830;-0.674;2023-04-30T04:21:19;35.80;;;20.55;;
35691;SDS011;26978;44.830;-0.674;2023-04-30T04:23:44;33.03;;;20.02;;
35691;SDS011;26978;44.830;-0.674;2023-04-30T04:26:10;34.25;;;20.25;;
35691;SDS011;26978;44.830;-0.674;2023-04-30T04:28:36;30.77;;;19.85;;
35691;SDS011;26978;44.830;-0.674;2023-04-30T04:31:03;36.03;;;21.08;;
35691;SDS011;26978;44.830;-0.674;2023-04-30T04:33:29;31.40;;;20.60;;
35691;SDS011;26978;44.830;-0.674;2023-04-30T04:35:55;29.88;;;21.13;;
35691;SDS011;26978;44.830;-0.674;2023-04-30T04:38:22;34.40;;;21.50;;
35691;SDS011;26978;44.830;-0.674;2023-04-30T04:40:51;33.22;;;19.80;;
35691;SDS011;26978;44.830;-0.674;2023-04-30T04:43:18;25.38;;;19.27;;
35691;SDS011;26978;44.830;-0.674;2023-04-30T04:45:44;25.05;;;19.30;;
35691;SDS011;26978;44.830;-0.674;2023-04-30T04:48:11;34.83;;;20.83;;
35691;SDS011;26978;44.830;-0.674;2023-04-30T04:50:36;31.95;;;18.33;;
35691;SDS011;26978;44.830;-0.674;2023-04-30T04:53:02;29.58;;;17.50;;
35691;SDS011;26978;44.830;-0.674;2023-04-30T04:55:27;35.45;;;20.45;;
35691;SDS011;26978;44.830;-0.674;2023-04-30T04:57:53;31.73;;;20.33;;
35691;SDS011;26978;44.830;-0.674;2023-04-30T05:00:19;29.38;;;20.52;;
35691;SDS011;26978;44.830;-0.674;2023-04-30T05:02:47;29.67;;;20.33;;
35691;SDS011;26978;44.830;-0.674;2023-04-30T05:05:12;34.17;;;22.75;;
35691;SDS011;26978;44.830;-0.674;2023-04-30T05:07:38;31.02;;;21.13;;
35691;SDS011;26978;44.830;-0.674;2023-04-30T05:10:05;32.17;;;21.27;;
35691;SDS011;26978;44.830;-0.674;2023-04-30T05:12:31;27.13;;;19.33;;
35691;SDS011;26978;44.830;-0.674;2023-04-30T05:14:57;30.83;;;20.38;;
35691;SDS011;26978;44.830;-0.674;2023-04-30T05:17:23;30.20;;;20.25;;
35691;SDS011;26978;44.830;-0.674;2023-04-30T05:19:48;27.42;;;19.08;;
35691;SDS011;26978;44.830;-0.674;2023-04-30T05:22:15;30.25;;;19.42;;
35691;SDS011;26978;44.830;-0.674;2023-04-30T05:24:41;29.48;;;18.27;;
35691;SDS011;26978;44.830;-0.674;2023-04-30T05:27:07;34.75;;;19.50;;
35691;SDS011;26978;44.830;-0.674;2023-04-30T05:29:32;26.52;;;18.63;;
35691;SDS011;26978;44.830;-0.674;2023-04-30T05:31:58;36.20;;;18.67;;
35691;SDS011;26978;44.830;-0.674;2023-04-30T05:34:24;30.88;;;17.85;;
35691;SDS011;26978;44.830;-0.674;2023-04-30T05:36:49;33.92;;;19.80;;
35691;SDS011;26978;44.830;-0.674;2023-04-30T05:39:15;30.20;;;18.92;;
35691;SDS011;26978;44.830;-0.674;2023-04-30T05:41:41;33.15;;;18.70;;
35691;SDS011;26978;44.830;-0.674;2023-04-30T05:44:06;33.85;;;18.73;;
35691;SDS011;26978;44.830;-0.674;2023-04-30T05:46:32;28.88;;;18.30;;
35691;SDS011;26978;44.830;-0.674;2023-04-30T05:48:59;36.63;;;18.65;;
35691;SDS011;26978;44.830;-0.674;2023-04-30T05:51:25;27.05;;;17.17;;
35691;SDS011;26978;44.830;-0.674;2023-04-30T05:53:52;32.83;;;17.67;;
35691;SDS011;26978;44.830;-0.674;2023-04-30T05:56:17;36.08;;;18.35;;
35691;SDS011;26978;44.830;-0.674;2023-04-30T05:58:43;29.75;;;18.15;;
35691;SDS011;26978;44.830;-0.674;2023-04-30T06:01:09;30.63;;;17.40;;
35691;SDS011;26978;44.830;-0.674;2023-04-30T06:03:35;23.08;;;15.70;;
35691;SDS011;26978;44.830;-0.674;2023-04-30T06:06:02;33.95;;;18.23;;
35691;SDS011;26978;44.830;-0.674;2023-04-30T06:08:28;28.23;;;17.27;;
35691;SDS011;26978;44.830;-0.674;2023-04-30T06:10:54;27.90;;;17.70;;
35691;SDS011;26978;44.830;-0.674;2023-04-30T06:13:20;26.25;;;17.60;;
35691;SDS011;26978;44.830;-0.674;2023-04-30T06:15:46;27.00;;;16.52;;
35691;SDS011;26978;44.830;-0.674;2023-04-30T06:18:12;27.73;;;16.70;;
35691;SDS011;26978;44.830;-0.674;2023-04-30T06:20:38;26.02;;;16.75;;
35691;SDS011;26978;44.830;-0.674;2023-04-30T06:23:04;23.38;;;17.05;;
35691;SDS011;26978;44.830;-0.674;2023-04-30T06:25:30;24.10;;;16.67;;
35691;SDS011;26978;44.830;-0.674;2023-04-30T06:27:55;23.65;;;16.48;;
35691;SDS011;26978;44.830;-0.674;2023-04-30T06:30:21;28.02;;;16.23;;
35691;SDS011;26978;44.830;-0.674;2023-04-30T06:32:47;24.15;;;16.38;;
35691;SDS011;26978;44.830;-0.674;2023-04-30T06:35:12;19.98;;;16.40;;
35691;SDS011;26978;44.830;-0.674;2023-04-30T06:37:38;19.63;;;15.35;;
35691;SDS011;26978;44.830;-0.674;2023-04-30T06:40:04;25.65;;;16.52;;
35691;SDS011;26978;44.830;-0.674;2023-04-30T06:42:31;25.25;;;17.60;;
35691;SDS011;26978;44.830;-0.674;2023-04-30T06:45:01;21.85;;;16.35;;
35691;SDS011;26978;44.830;-0.674;2023-04-30T06:47:27;20.65;;;15.57;;
35691;SDS011;26978;44.830;-0.674;2023-04-30T06:49:52;24.95;;;15.85;;
35691;SDS011;26978;44.830;-0.674;2023-04-30T06:52:18;24.48;;;14.82;;
35691;SDS011;26978;44.830;-0.674;2023-04-30T06:54:44;23.40;;;15.27;;
35691;SDS011;26978;44.830;-0.674;2023-04-30T06:57:09;22.58;;;16.25;;
35691;SDS011;26978;44.830;-0.674;2023-04-30T06:59:36;22.27;;;15.43;;
35691;SDS011;26978;44.830;-0.674;2023-04-30T07:02:02;18.85;;;14.95;;
35691;SDS011;26978;44.830;-0.674;2023-04-30T07:04:27;20.05;;;15.43;;
35691;SDS011;26978;44.830;-0.674;2023-04-30T07:06:53;20.45;;;15.07;;
35691;SDS011;26978;44.830;-0.674;2023-04-30T07:09:18;21.10;;;14.40;;
35691;SDS011;26978;44.830;-0.674;2023-04-30T07:11:44;20.52;;;14.27;;
35691;SDS011;26978;44.830;-0.674;2023-04-30T07:14:09;21.55;;;13.75;;
35691;SDS011;26978;44.830;-0.674;2023-04-30T07:16:35;16.25;;;12.50;;
35691;SDS011;26978;44.830;-0.674;2023-04-30T07:19:01;15.60;;;12.80;;
35691;SDS011;26978;44.830;-0.674;2023-04-30T07:21:26;17.75;;;12.32;;
35691;SDS011;26978;44.830;-0.674;2023-04-30T07:23:52;18.00;;;13.43;;
35691;SDS011;26978;44.830;-0.674;2023-04-30T07:26:18;16.52;;;12.63;;
35691;SDS011;26978;44.830;-0.674;2023-04-30T07:28:47;14.85;;;12.32;;
35691;SDS011;26978;44.830;-0.674;2023-04-30T07:31:13;18.75;;;12.23;;
35691;SDS011;26978;44.830;-0.674;2023-04-30T07:33:39;15.10;;;12.45;;
35691;SDS011;26978;44.830;-0.674;2023-04-30T07:36:05;19.48;;;12.15;;
35691;SDS011;26978;44.830;-0.674;2023-04-30T07:38:31;15.80;;;11.88;;
35691;SDS011;26978;44.830;-0.674;2023-04-30T07:40:57;17.13;;;12.65;;
35691;SDS011;26978;44.830;-0.674;2023-04-30T07:43:23;20.85;;;12.63;;
35691;SDS011;26978;44.830;-0.674;2023-04-30T07:45:48;13.75;;;10.52;;
35691;SDS011;26978;44.830;-0.674;2023-04-30T07:48:15;17.30;;;11.68;;
35691;SDS011;26978;44.830;-0.674;2023-04-30T07:50:41;19.60;;;11.43;;
35691;SDS011;26978;44.830;-0.674;2023-04-30T07:53:06;19.52;;;11.65;;
35691;SDS011;26978;44.830;-0.674;2023-04-30T07:55:34;16.88;;;11.88;;
35691;SDS011;26978;44.830;-0.674;2023-04-30T07:57:59;14.02;;;10.55;;
35691;SDS011;26978;44.830;-0.674;2023-04-30T08:00:26;24.85;;;12.10;;
35691;SDS011;26978;44.830;-0.674;2023-04-30T08:02:53;16.30;;;11.27;;
35691;SDS011;26978;44.830;-0.674;2023-04-30T08:05:19;17.00;;;10.85;;
35691;SDS011;26978;44.830;-0.674;2023-04-30T08:07:45;12.77;;;11.20;;
35691;SDS011;26978;44.830;-0.674;2023-04-30T08:10:11;13.40;;;10.10;;
35691;SDS011;26978;44.830;-0.674;2023-04-30T08:12:37;12.68;;;9.95;;
35691;SDS011;26978;44.830;-0.674;2023-04-30T08:15:03;11.43;;;9.57;;
35691;SDS011;26978;44.830;-0.674;2023-04-30T08:17:30;13.15;;;9.57;;
35691;SDS011;26978;44.830;-0.674;2023-04-30T08:19:56;17.02;;;9.88;;
35691;SDS011;26978;44.830;-0.674;2023-04-30T08:22:22;14.18;;;9.02;;
35691;SDS011;26978;44.830;-0.674;2023-04-30T08:24:48;10.90;;;9.43;;
35691;SDS011;26978;44.830;-0.674;2023-04-30T08:27:14;12.23;;;8.98;;
35691;SDS011;26978;44.830;-0.674;2023-04-30T08:29:40;12.55;;;8.73;;
35691;SDS011;26978;44.830;-0.674;2023-04-30T08:32:06;13.13;;;8.38;;
35691;SDS011;26978;44.830;-0.674;2023-04-30T08:34:33;9.18;;;7.80;;
35691;SDS011;26978;44.830;-0.674;2023-04-30T08:36:59;9.85;;;7.38;;
35691;SDS011;26978;44.830;-0.674;2023-04-30T08:39:25;16.55;;;7.13;;
35691;SDS011;26978;44.830;-0.674;2023-04-30T08:41:53;9.77;;;6.63;;
35691;SDS011;26978;44.830;-0.674;2023-04-30T08:44:23;11.52;;;6.72;;
35691;SDS011;26978;44.830;-0.674;2023-04-30T08:46:54;8.60;;;5.40;;
35691;SDS011;26978;44.830;-0.674;2023-04-30T08:49:20;6.85;;;4.88;;
35691;SDS011;26978;44.830;-0.674;2023-04-30T08:51:47;6.45;;;4.63;;
35691;SDS011;26978;44.830;-0.674;2023-04-30T08:54:13;7.05;;;4.70;;
35691;SDS011;26978;44.830;-0.674;2023-04-30T08:56:41;5.43;;;4.47;;
35691;SDS011;26978;44.830;-0.674;2023-04-30T08:59:07;6.90;;;5.15;;
35691;SDS011;26978;44.830;-0.674;2023-04-30T09:01:33;9.57;;;5.18;;
35691;SDS011;26978;44.830;-0.674;2023-04-30T09:03:59;6.38;;;4.47;;
35691;SDS011;26978;44.830;-0.674;2023-04-30T09:06:28;6.00;;;4.80;;
35691;SDS011;26978;44.830;-0.674;2023-04-30T09:08:53;6.43;;;4.13;;
35691;SDS011;26978;44.830;-0.674;2023-04-30T09:11:20;3.55;;;3.10;;
35691;SDS011;26978;44.830;-0.674;2023-04-30T09:13:48;4.10;;;3.70;;
35691;SDS011;26978;44.830;-0.674;2023-04-30T09:16:16;5.10;;;3.80;;
35691;SDS011;26978;44.830;-0.674;2023-04-30T09:18:42;5.43;;;3.25;;
35691;SDS011;26978;44.830;-0.674;2023-04-30T09:21:08;4.30;;;3.05;;
35691;SDS011;26978;44.830;-0.674;2023-04-30T09:23:34;4.35;;;2.70;;
35691;SDS011;26978;44.830;-0.674;2023-04-30T09:25:59;5.32;;;2.90;;
35691;SDS011;26978;44.830;-0.674;2023-04-30T09:28:25;3.15;;;2.38;;
35691;SDS011;26978;44.830;-0.674;2023-04-30T09:30:53;6.55;;;2.50;;
35691;SDS011;26978;44.830;-0.674;2023-04-30T09:33:21;6.20;;;2.88;;
35691;SDS011;26978;44.830;-0.674;2023-04-30T09:35:46;5.85;;;2.42;;
35691;SDS011;26978;44.830;-0.674;2023-04-30T09:40:56;3.22;;;2.22;;
35691;SDS011;26978;44.830;-0.674;2023-04-30T09:43:23;2.50;;;1.45;;
35691;SDS011;26978;44.830;-0.674;2023-04-30T09:45:49;2.47;;;1.50;;
35691;SDS011;26978;44.830;-0.674;2023-04-30T09:48:17;2.33;;;1.35;;
35691;SDS011;26978;44.830;-0.674;2023-04-30T09:50:45;3.40;;;2.05;;
35691;SDS011;26978;44.830;-0.674;2023-04-30T09:53:11;2.70;;;1.63;;
35691;SDS011;26978;44.830;-0.674;2023-04-30T09:55:40;2.25;;;1.60;;
35691;SDS011;26978;44.830;-0.674;2023-04-30T09:58:08;4.80;;;2.05;;
35691;SDS011;26978;44.830;-0.674;2023-04-30T10:00:35;1.85;;;1.60;;
35691;SDS011;26978;44.830;-0.674;2023-04-30T10:03:08;2.38;;;1.33;;
35691;SDS011;26978;44.830;-0.674;2023-04-30T10:05:44;2.35;;;1.40;;
35691;SDS011;26978;44.830;-0.674;2023-04-30T10:08:24;3.72;;;1.38;;
35691;SDS011;26978;44.830;-0.674;2023-04-30T10:11:12;1.40;;;1.30;;
35691;SDS011;26978;44.830;-0.674;2023-04-30T10:14:02;3.53;;;1.40;;
35691;SDS011;26978;44.830;-0.674;2023-04-30T10:19:15;3.10;;;2.10;;
35691;SDS011;26978;44.830;-0.674;2023-04-30T10:21:45;2.80;;;1.50;;
35691;SDS011;26978;44.830;-0.674;2023-04-30T10:24:12;2.20;;;1.52;;
35691;SDS011;26978;44.830;-0.674;2023-04-30T10:26:39;3.47;;;1.50;;
35691;SDS011;26978;44.830;-0.674;2023-04-30T10:29:06;2.45;;;1.70;;
35691;SDS011;26978;44.830;-0.674;2023-04-30T10:31:33;2.80;;;1.40;;
35691;SDS011;26978;44.830;-0.674;2023-04-30T10:34:03;2.65;;;2.03;;
35691;SDS011;26978;44.830;-0.674;2023-04-30T10:39:30;1.88;;;1.50;;
35691;SDS011;26978;44.830;-0.674;2023-04-30T10:41:59;3.88;;;1.80;;
35691;SDS011;26978;44.830;-0.674;2023-04-30T10:44:26;3.25;;;1.40;;
35691;SDS011;26978;44.830;-0.674;2023-04-30T10:46:58;2.08;;;1.52;;
35691;SDS011;26978;44.830;-0.674;2023-04-30T10:49:25;2.30;;;1.65;;
35691;SDS011;26978;44.830;-0.674;2023-04-30T10:51:51;1.80;;;1.67;;
35691;SDS011;26978;44.830;-0.674;2023-04-30T10:54:26;1.90;;;1.50;;
35691;SDS011;26978;44.830;-0.674;2023-04-30T10:56:53;4.03;;;1.60;;
35691;SDS011;26978;44.830;-0.674;2023-04-30T10:59:34;1.75;;;1.60;;
35691;SDS011;26978;44.830;-0.674;2023-04-30T11:01:59;2.80;;;1.70;;
35691;SDS011;26978;44.830;-0.674;2023-04-30T11:04:26;2.08;;;1.40;;
35691;SDS011;26978;44.830;-0.674;2023-04-30T11:09:37;2.17;;;1.80;;
35691;SDS011;26978;44.830;-0.674;2023-04-30T11:12:12;4.05;;;1.80;;
35691;SDS011;26978;44.830;-0.674;2023-04-30T11:14:40;4.80;;;1.77;;
35691;SDS011;26978;44.830;-0.674;2023-04-30T11:17:08;2.35;;;1.55;;
35691;SDS011;26978;44.830;-0.674;2023-04-30T11:19:35;2.45;;;1.63;;
35691;SDS011;26978;44.830;-0.674;2023-04-30T11:27:26;2.35;;;1.67;;
35691;SDS011;26978;44.830;-0.674;2023-04-30T11:29:57;2.53;;;1.55;;
35691;SDS011;26978;44.830;-0.674;2023-04-30T11:32:24;2.22;;;1.60;;
35691;SDS011;26978;44.830;-0.674;2023-04-30T11:34:51;1.90;;;1.33;;
35691;SDS011;26978;44.830;-0.674;2023-04-30T11:37:18;4.00;;;2.13;;
35691;SDS011;26978;44.830;-0.674;2023-04-30T11:39:46;3.92;;;1.58;;
35691;SDS011;26978;44.830;-0.674;2023-04-30T11:42:19;4.25;;;1.88;;
35691;SDS011;26978;44.830;-0.674;2023-04-30T11:44:45;5.35;;;2.08;;
35691;SDS011;26978;44.830;-0.674;2023-04-30T11:47:14;2.30;;;1.80;;
35691;SDS011;26978;44.830;-0.674;2023-04-30T11:49:40;2.83;;;1.60;;
35691;SDS011;26978;44.830;-0.674;2023-04-30T11:52:07;1.85;;;1.58;;
35691;SDS011;26978;44.830;-0.674;2023-04-30T11:54:36;1.95;;;1.55;;
35691;SDS011;26978;44.830;-0.674;2023-04-30T11:57:03;1.50;;;1.40;;
35691;SDS011;26978;44.830;-0.674;2023-04-30T11:59:29;5.93;;;1.83;;
35691;SDS011;26978;44.830;-0.674;2023-04-30T12:01:56;1.85;;;1.52;;
35691;SDS011;26978;44.830;-0.674;2023-04-30T12:04:22;2.60;;;1.42;;
35691;SDS011;26978;44.830;-0.674;2023-04-30T12:06:48;3.10;;;1.65;;
35691;SDS011;26978;44.830;-0.674;2023-04-30T12:09:14;1.92;;;1.75;;
35691;SDS011;26978;44.830;-0.674;2023-04-30T12:11:40;2.25;;;1.42;;
35691;SDS011;26978;44.830;-0.674;2023-04-30T12:14:07;1.83;;;1.40;;
35691;SDS011;26978;44.830;-0.674;2023-04-30T12:19:05;3.50;;;1.45;;
35691;SDS011;26978;44.830;-0.674;2023-04-30T12:21:30;3.17;;;1.70;;
35691;SDS011;26978;44.830;-0.674;2023-04-30T12:23:57;2.38;;;1.58;;
35691;SDS011;26978;44.830;-0.674;2023-04-30T12:26:23;3.13;;;1.38;;
35691;SDS011;26978;44.830;-0.674;2023-04-30T12:28:49;3.80;;;1.63;;
35691;SDS011;26978;44.830;-0.674;2023-04-30T12:31:16;5.57;;;1.48;;
35691;SDS011;26978;44.830;-0.674;2023-04-30T12:33:42;2.45;;;1.55;;
35691;SDS011;26978;44.830;-0.674;2023-04-30T12:36:11;2.03;;;1.50;;
35691;SDS011;26978;44.830;-0.674;2023-04-30T12:38:41;3.00;;;1.65;;
35691;SDS011;26978;44.830;-0.674;2023-04-30T12:41:10;2.58;;;1.50;;
35691;SDS011;26978;44.830;-0.674;2023-04-30T12:43:39;2.78;;;1.55;;
35691;SDS011;26978;44.830;-0.674;2023-04-30T12:46:05;3.00;;;1.50;;
35691;SDS011;26978;44.830;-0.674;2023-04-30T12:48:30;1.60;;;1.42;;
35691;SDS011;26978;44.830;-0.674;2023-04-30T12:51:08;2.55;;;1.60;;
35691;SDS011;26978;44.830;-0.674;2023-04-30T12:53:43;1.80;;;1.35;;
35691;SDS011;26978;44.830;-0.674;2023-04-30T12:56:11;1.55;;;1.30;;
35691;SDS011;26978;44.830;-0.674;2023-04-30T12:58:44;1.40;;;1.10;;
35691;SDS011;26978;44.830;-0.674;2023-04-30T13:01:21;2.33;;;1.60;;
35691;SDS011;26978;44.830;-0.674;2023-04-30T13:03:48;3.85;;;1.33;;
35691;SDS011;26978;44.830;-0.674;2023-04-30T13:06:14;2.70;;;1.42;;
35691;SDS011;26978;44.830;-0.674;2023-04-30T13:08:40;1.60;;;1.50;;
35691;SDS011;26978;44.830;-0.674;2023-04-30T13:11:05;3.00;;;1.30;;
35691;SDS011;26978;44.830;-0.674;2023-04-30T13:13:31;2.38;;;1.40;;
35691;SDS011;26978;44.830;-0.674;2023-04-30T13:15:57;3.50;;;1.52;;
35691;SDS011;26978;44.830;-0.674;2023-04-30T13:18:23;1.77;;;1.50;;
35691;SDS011;26978;44.830;-0.674;2023-04-30T13:20:49;1.25;;;1.00;;
35691;SDS011;26978;44.830;-0.674;2023-04-30T13:23:16;2.75;;;1.35;;
35691;SDS011;26978;44.830;-0.674;2023-04-30T13:25:42;2.88;;;1.35;;
35691;SDS011;26978;44.830;-0.674;2023-04-30T13:28:07;3.72;;;1.45;;
35691;SDS011;26978;44.830;-0.674;2023-04-30T13:30:33;4.40;;;1.50;;
35691;SDS011;26978;44.830;-0.674;2023-04-30T13:32:59;2.00;;;1.30;;
35691;SDS011;26978;44.830;-0.674;2023-04-30T13:35:25;4.22;;;1.50;;
35691;SDS011;26978;44.830;-0.674;2023-04-30T13:37:51;9.73;;;1.95;;
35691;SDS011;26978;44.830;-0.674;2023-04-30T13:40:18;1.95;;;1.30;;
35691;SDS011;26978;44.830;-0.674;2023-04-30T13:42:45;2.33;;;1.70;;
35691;SDS011;26978;44.830;-0.674;2023-04-30T13:45:11;3.45;;;1.67;;
35691;SDS011;26978;44.830;-0.674;2023-04-30T13:47:37;1.85;;;1.50;;
35691;SDS011;26978;44.830;-0.674;2023-04-30T13:50:03;3.30;;;1.80;;
35691;SDS011;26978;44.830;-0.674;2023-04-30T13:52:30;2.65;;;2.20;;
35691;SDS011;26978;44.830;-0.674;2023-04-30T13:54:56;2.55;;;2.30;;
35691;SDS011;26978;44.830;-0.674;2023-04-30T13:57:22;3.95;;;2.28;;
35691;SDS011;26978;44.830;-0.674;2023-04-30T13:59:48;4.70;;;2.63;;
35691;SDS011;26978;44.830;-0.674;2023-04-30T14:02:14;2.75;;;2.28;;
35691;SDS011;26978;44.830;-0.674;2023-04-30T14:04:40;3.58;;;2.17;;
35691;SDS011;26978;44.830;-0.674;2023-04-30T14:07:06;3.33;;;2.35;;
35691;SDS011;26978;44.830;-0.674;2023-04-30T14:09:31;5.10;;;2.97;;
35691;SDS011;26978;44.830;-0.674;2023-04-30T14:11:57;3.55;;;2.05;;
35691;SDS011;26978;44.830;-0.674;2023-04-30T14:14:26;3.00;;;2.00;;
35691;SDS011;26978;44.830;-0.674;2023-04-30T14:16:52;2.55;;;2.05;;
35691;SDS011;26978;44.830;-0.674;2023-04-30T14:19:19;2.33;;;1.92;;
35691;SDS011;26978;44.830;-0.674;2023-04-30T14:21:47;2.75;;;1.88;;
35691;SDS011;26978;44.830;-0.674;2023-04-30T14:24:13;4.35;;;2.22;;
35691;SDS011;26978;44.830;-0.674;2023-04-30T14:26:43;4.35;;;2.42;;
35691;SDS011;26978;44.830;-0.674;2023-04-30T14:29:12;18.67;;;3.13;;
35691;SDS011;26978;44.830;-0.674;2023-04-30T14:31:37;4.50;;;3.08;;
35691;SDS011;26978;44.830;-0.674;2023-04-30T14:34:03;5.43;;;3.17;;
35691;SDS011;26978;44.830;-0.674;2023-04-30T14:36:29;4.65;;;2.65;;
35691;SDS011;26978;44.830;-0.674;2023-04-30T14:38:55;6.95;;;2.97;;
35691;SDS011;26978;44.830;-0.674;2023-04-30T14:41:21;13.20;;;3.75;;
35691;SDS011;26978;44.830;-0.674;2023-04-30T14:43:46;5.70;;;3.08;;
35691;SDS011;26978;44.830;-0.674;2023-04-30T14:46:12;4.95;;;2.70;;
35691;SDS011;26978;44.830;-0.674;2023-04-30T14:48:38;5.40;;;3.33;;
35691;SDS011;26978;44.830;-0.674;2023-04-30T14:51:03;3.65;;;3.05;;
35691;SDS011;26978;44.830;-0.674;2023-04-30T14:53:29;7.22;;;2.90;;
35691;SDS011;26978;44.830;-0.674;2023-04-30T14:55:56;4.13;;;2.55;;